Time;durP1;ratioP1;P1;durP2;ratioP2;P2;SDS_P1;SDS_P2;PMS_P1;PMS_P2;Temp;Humidity;BMP_temperature;BMP_pressure;BME280_temperature;BME280_humidity;BME280_pressure;Samples;Min_cycle;Max_cycle;Signal;HPM_P1;HPM_P2
2023/05/20 00:01:58;;;;;;;6.47;2.70;;;20.70;80.90;;;;;;5053464;28;20451;-61
2023/05/20 00:04:24;;;;;;;5.80;2.97;;;20.50;80.80;;;;;;5053187;28;20132;-60
2023/05/20 00:06:50;;;;;;;6.95;2.60;;;20.50;80.80;;;;;;5052476;28;20049;-60
2023/05/20 00:09:16;;;;;;;6.80;2.53;;;20.60;80.80;;;;;;5055617;28;20062;-60
2023/05/20 00:11:42;;;;;;;7.57;2.72;;;;;;;;;;5071207;28;20498;-60
2023/05/20 00:14:07;;;;;;;6.63;2.72;;;20.70;80.90;;;;;;5053225;28;20075;-60
2023/05/20 00:16:33;;;;;;;8.05;2.80;;;20.60;80.90;;;;;;5063809;28;20447;-61
2023/05/20 00:18:59;;;;;;;5.30;2.22;;;20.50;80.80;;;;;;5071341;28;20409;-61
2023/05/20 00:21:25;;;;;;;6.65;2.60;;;20.60;80.80;;;;;;5068192;28;20503;-60
2023/05/20 00:23:51;;;;;;;5.93;2.53;;;20.70;80.90;;;;;;5053093;28;20048;-61
2023/05/20 00:26:16;;;;;;;5.43;2.60;;;20.40;80.70;;;;;;5070154;28;20044;-60
2023/05/20 00:28:42;;;;;;;6.32;2.60;;;20.60;80.90;;;;;;5072787;28;20258;-60
2023/05/20 00:31:08;;;;;;;6.53;2.40;;;;;;;;;;5066986;28;20178;-61
2023/05/20 00:33:35;;;;;;;4.95;2.67;;;20.40;78.50;;;;;;5061649;28;20047;-61
2023/05/20 00:36:01;;;;;;;9.30;2.97;;;20.30;80.60;;;;;;5071981;28;20067;-61
2023/05/20 00:38:26;;;;;;;6.97;2.70;;;20.50;80.80;;;;;;5052547;28;20479;-60
2023/05/20 00:40:52;;;;;;;5.97;2.58;;;20.40;80.80;;;;;;5037795;28;20046;-60
2023/05/20 00:43:19;;;;;;;5.25;2.30;;;20.60;80.90;;;;;;5071791;28;20051;-60
2023/05/20 00:45:45;;;;;;;7.07;2.45;;;20.80;81.00;;;;;;5072819;28;20058;-60
2023/05/20 00:48:11;;;;;;;7.70;2.55;;;20.50;80.80;;;;;;5050570;28;20036;-61
2023/05/20 00:50:37;;;;;;;5.82;2.17;;;20.50;80.70;;;;;;5071931;28;20051;-62
2023/05/20 00:53:02;;;;;;;5.53;2.20;;;20.60;80.90;;;;;;5051950;28;20475;-61
2023/05/20 00:55:29;;;;;;;5.97;2.33;;;;;;;;;;5038108;28;20483;-63
2023/05/20 00:57:54;;;;;;;6.10;2.72;;;20.70;80.90;;;;;;5061811;28;20102;-61
2023/05/20 01:00:20;;;;;;;6.28;2.50;;;20.30;80.60;;;;;;5052380;28;20487;-61
2023/05/20 01:02:46;;;;;;;7.00;2.50;;;20.70;80.90;;;;;;5052635;28;20048;-60
2023/05/20 01:05:12;;;;;;;5.95;2.58;;;20.60;80.70;;;;;;5052573;28;20078;-60
2023/05/20 01:07:38;;;;;;;7.32;2.80;;;;;;;;;;5059395;28;20048;-60
2023/05/20 01:10:04;;;;;;;6.38;2.50;;;;;;;;;;5072252;28;20095;-61
2023/05/20 01:12:38;;;;;;;5.00;2.30;;;20.50;80.70;;;;;;5068622;28;20049;-60
2023/05/20 01:15:11;;;;;;;5.20;2.25;;;20.50;80.70;;;;;;5034704;28;20041;-60
2023/05/20 01:17:45;;;;;;;8.70;2.47;;;20.50;80.80;;;;;;5045554;28;20056;-60
2023/05/20 01:20:13;;;;;;;7.72;2.30;;;20.50;80.70;;;;;;5074052;28;20116;-60
2023/05/20 01:22:48;;;;;;;7.03;3.05;;;20.40;80.60;;;;;;5057077;28;20432;-60
2023/05/20 01:25:14;;;;;;;5.05;2.40;;;20.50;80.70;;;;;;5058792;28;20057;-61
2023/05/20 01:27:39;;;;;;;4.57;2.25;;;20.70;80.80;;;;;;5074711;28;20531;-60
2023/05/20 01:30:06;;;;;;;5.38;2.13;;;20.60;76.80;;;;;;5057636;28;20530;-62
2023/05/20 01:32:36;;;;;;;5.95;2.35;;;20.70;80.70;;;;;;5076232;28;20129;-60
2023/05/20 01:35:02;;;;;;;5.88;2.00;;;;;;;;;;5042435;28;20123;-61
2023/05/20 01:37:28;;;;;;;5.97;2.50;;;20.50;80.60;;;;;;5074861;28;20097;-60
2023/05/20 01:39:53;;;;;;;6.25;2.20;;;20.50;80.60;;;;;;5041112;28;20131;-60
2023/05/20 01:42:19;;;;;;;4.03;2.08;;;20.40;80.60;;;;;;5058361;28;20371;-61
2023/05/20 01:44:45;;;;;;;4.72;2.10;;;20.60;80.60;;;;;;5034680;28;20091;-60
2023/05/20 01:47:10;;;;;;;4.05;1.98;;;20.30;80.50;;;;;;5053754;28;20506;-61
2023/05/20 01:49:36;;;;;;;6.78;2.13;;;20.50;80.60;;;;;;5057011;28;20131;-60
2023/05/20 01:52:02;;;;;;;6.80;2.40;;;20.30;80.40;;;;;;5055966;28;20141;-60
2023/05/20 01:54:28;;;;;;;4.13;1.98;;;20.40;80.50;;;;;;5055782;28;20037;-61
2023/05/20 01:56:54;;;;;;;4.85;2.00;;;20.30;80.30;;;;;;5056656;28;20063;-61
2023/05/20 01:59:20;;;;;;;3.92;1.85;;;20.60;80.60;;;;;;5067934;28;20087;-61
2023/05/20 02:01:46;;;;;;;4.10;2.08;;;20.60;80.60;;;;;;5055801;28;20045;-60
2023/05/20 02:04:12;;;;;;;5.70;2.03;;;20.50;78.20;;;;;;5061391;28;20048;-62
2023/05/20 02:06:37;;;;;;;3.92;1.98;;;20.30;80.40;;;;;;5075736;28;20448;-61
2023/05/20 02:09:03;;;;;;;4.53;1.80;;;20.50;80.50;;;;;;5073490;28;20045;-60
2023/05/20 02:11:29;;;;;;;4.55;2.15;;;20.40;80.50;;;;;;5075607;28;20076;-60
2023/05/20 02:13:55;;;;;;;7.63;2.55;;;20.50;80.50;;;;;;5074450;28;20072;-60
2023/05/20 02:16:21;;;;;;;4.22;1.90;;;20.50;80.50;;;;;;5075449;28;20090;-60
2023/05/20 02:18:47;;;;;;;5.75;2.05;;;;;;;;;;5073801;28;20084;-62
2023/05/20 02:21:13;;;;;;;5.35;1.92;;;20.50;80.50;;;;;;5075099;28;20132;-60
2023/05/20 02:23:39;;;;;;;6.63;2.22;;;20.40;80.40;;;;;;5073854;28;20120;-60
2023/05/20 02:26:05;;;;;;;6.47;2.20;;;20.60;80.50;;;;;;5075293;28;20052;-59
2023/05/20 02:28:30;;;;;;;6.13;2.00;;;20.60;80.50;;;;;;5074430;28;20051;-60
2023/05/20 02:30:56;;;;;;;4.70;1.90;;;20.40;80.40;;;;;;5068583;28;20041;-60
2023/05/20 02:33:22;;;;;;;4.88;2.10;;;20.70;80.60;;;;;;5064274;28;20463;-60
2023/05/20 02:35:48;;;;;;;4.60;1.90;;;;;;;;;;5075084;28;20432;-61
2023/05/20 02:38:14;;;;;;;4.72;1.83;;;20.50;80.40;;;;;;5061334;28;20040;-60
2023/05/20 02:40:43;;;;;;;4.22;1.75;;;20.40;80.40;;;;;;5055980;28;20109;-60
2023/05/20 02:43:09;;;;;;;3.78;1.80;;;20.30;80.30;;;;;;5075091;28;20049;-61
2023/05/20 02:45:35;;;;;;;4.18;1.90;;;20.70;80.50;;;;;;5074974;28;20391;-60
2023/05/20 02:48:00;;;;;;;4.32;1.90;;;20.60;80.40;;;;;;5067033;28;20402;-60
2023/05/20 02:50:26;;;;;;;3.90;1.60;;;20.30;80.40;;;;;;5056603;28;20123;-60
2023/05/20 02:52:52;;;;;;;5.28;1.85;;;20.70;80.50;;;;;;5068682;28;20040;-61
2023/05/20 02:55:18;;;;;;;3.78;1.80;;;20.40;80.40;;;;;;5060798;28;20474;-60
2023/05/20 02:57:43;;;;;;;3.75;1.85;;;20.50;80.40;;;;;;5074449;28;20049;-60
2023/05/20 03:00:10;;;;;;;4.95;1.90;;;20.30;80.10;;;;;;5058182;28;20135;-61
2023/05/20 03:02:35;;;;;;;4.95;2.20;;;20.30;80.30;;;;;;5054668;28;20398;-61
2023/05/20 03:05:04;;;;;;;5.30;2.03;;;20.20;80.30;;;;;;5054856;28;20127;-61
2023/05/20 03:07:30;;;;;;;3.42;1.63;;;20.50;79.10;;;;;;5067523;28;20053;-60
2023/05/20 03:09:58;;;;;;;3.95;1.50;;;20.60;80.70;;;;;;5068661;28;20139;-59
2023/05/20 03:12:25;;;;;;;4.72;1.90;;;20.60;80.80;;;;;;5074013;28;20063;-60
2023/05/20 03:14:54;;;;;;;4.38;1.73;;;20.50;80.60;;;;;;5056789;28;20048;-60
2023/05/20 03:17:23;;;;;;;6.32;1.95;;;20.40;80.60;;;;;;5073826;28;20052;-59
2023/05/20 03:19:48;;;;;;;5.25;1.60;;;20.30;80.30;;;;;;5074236;28;20382;-59
2023/05/20 03:22:14;;;;;;;4.38;1.83;;;20.30;80.40;;;;;;5074886;28;20050;-60
2023/05/20 03:24:41;;;;;;;3.92;1.83;;;;;;;;;;5056681;28;20087;-59
2023/05/20 03:27:07;;;;;;;4.72;1.88;;;20.50;80.50;;;;;;5074452;28;20053;-60
2023/05/20 03:29:33;;;;;;;3.75;1.92;;;20.60;80.50;;;;;;5074041;28;20036;-60
2023/05/20 03:31:59;;;;;;;4.82;1.80;;;;;;;;;;5071922;28;20131;-60
2023/05/20 03:34:27;;;;;;;9.55;2.60;;;20.30;80.30;;;;;;5054353;28;20110;-60
2023/05/20 03:36:52;;;;;;;4.38;1.90;;;20.70;80.50;;;;;;5054586;28;20483;-59
2023/05/20 03:39:18;;;;;;;3.72;1.85;;;20.40;80.50;;;;;;5035414;28;20051;-60
2023/05/20 03:41:44;;;;;;;4.05;2.00;;;20.60;80.50;;;;;;5074121;28;20056;-61
2023/05/20 03:44:10;;;;;;;4.68;1.65;;;20.40;80.50;;;;;;5056702;28;20037;-60
2023/05/20 03:46:35;;;;;;;5.13;1.85;;;20.40;77.90;;;;;;5074131;28;20117;-60
2023/05/20 03:49:01;;;;;;;4.28;1.83;;;20.30;80.60;;;;;;5063055;28;20157;-60
2023/05/20 03:51:27;;;;;;;3.30;1.60;;;20.40;80.40;;;;;;5074010;28;20040;-61
2023/05/20 03:53:53;;;;;;;3.85;1.70;;;20.50;77.60;;;;;;5074241;28;20045;-59
2023/05/20 03:56:18;;;;;;;3.95;1.65;;;20.50;77.60;;;;;;5074141;28;20048;-60
2023/05/20 03:58:44;;;;;;;3.75;1.70;;;20.40;78.60;;;;;;5073228;28;20448;-59
2023/05/20 04:01:13;;;;;;;4.40;1.70;;;20.50;77.60;;;;;;5073916;28;20048;-60
2023/05/20 04:03:40;;;;;;;3.80;1.75;;;20.40;80.30;;;;;;5073990;28;20044;-59
2023/05/20 04:06:06;;;;;;;5.07;1.70;;;20.50;80.50;;;;;;5073942;28;20052;-60
2023/05/20 04:08:35;;;;;;;5.60;1.63;;;20.40;77.40;;;;;;5065814;28;20124;-60
2023/05/20 04:11:01;;;;;;;3.45;1.60;;;20.50;80.30;;;;;;5069085;28;20057;-59
2023/05/20 04:13:27;;;;;;;4.28;1.58;;;20.40;80.20;;;;;;5067536;28;20052;-60
2023/05/20 04:15:53;;;;;;;4.50;1.70;;;20.30;80.30;;;;;;5055504;28;20056;-60
2023/05/20 04:18:19;;;;;;;3.72;1.75;;;20.20;80.00;;;;;;5056285;28;20122;-60
2023/05/20 04:20:45;;;;;;;4.10;1.70;;;;;;;;;;5056001;28;20052;-61
2023/05/20 04:23:11;;;;;;;4.47;1.73;;;20.40;80.10;;;;;;5069332;28;20497;-60
2023/05/20 04:25:37;;;;;;;5.25;2.05;;;20.50;77.00;;;;;;5053387;28;20052;-60
2023/05/20 04:28:03;;;;;;;4.07;1.80;;;20.60;80.10;;;;;;5057833;28;20040;-60
2023/05/20 04:30:32;;;;;;;4.22;1.60;;;20.50;80.00;;;;;;5073221;28;20515;-59
2023/05/20 04:33:01;;;;;;;5.28;1.90;;;20.50;79.90;;;;;;5073227;28;20059;-60
2023/05/20 04:35:28;;;;;;;3.33;1.40;;;20.40;79.90;;;;;;5073639;28;20508;-60
2023/05/20 04:37:54;;;;;;;2.72;1.38;;;20.60;77.20;;;;;;5062834;28;20486;-60
2023/05/20 04:40:20;;;;;;;4.85;1.70;;;20.50;79.90;;;;;;5073500;28;20044;-60
2023/05/20 04:42:46;;;;;;;3.13;1.35;;;20.50;80.10;;;;;;5055188;28;20041;-60
2023/05/20 04:45:12;;;;;;;4.25;1.63;;;20.50;79.80;;;;;;5055333;28;20544;-60
2023/05/20 04:47:38;;;;;;;2.90;1.35;;;;;;;;;;5056996;28;20048;-60
2023/05/20 04:50:12;;;;;;;3.47;1.45;;;20.80;79.80;;;;;;5053384;28;20075;-60
2023/05/20 04:52:38;;;;;;;3.95;1.50;;;20.50;77.70;;;;;;5053656;28;20056;-61
2023/05/20 04:55:09;;;;;;;4.55;1.50;;;20.80;76.80;;;;;;5052474;28;20052;-59
2023/05/20 04:57:37;;;;;;;4.25;1.70;;;20.70;79.60;;;;;;5056348;28;20489;-60
2023/05/20 05:00:06;;;;;;;3.17;1.52;;;21.00;80.00;;;;;;5072289;28;20510;-60
2023/05/20 05:02:33;;;;;;;4.30;1.27;;;20.90;79.30;;;;;;5072250;28;20406;-60
2023/05/20 05:04:59;;;;;;;3.75;1.20;;;21.10;79.00;;;;;;5072326;28;20109;-60
2023/05/20 05:07:25;;;;;;;4.80;1.60;;;21.20;78.70;;;;;;5072770;28;20040;-61
2023/05/20 05:09:50;;;;;;;3.63;1.60;;;21.40;78.50;;;;;;5070971;28;20052;-61
2023/05/20 05:12:16;;;;;;;4.38;1.40;;;21.80;78.30;;;;;;5055252;28;20466;-60
2023/05/20 05:14:42;;;;;;;3.45;1.60;;;21.80;77.80;;;;;;5073082;28;20043;-59
2023/05/20 05:17:08;;;;;;;3.70;1.58;;;;;;;;;;5035156;28;20056;-65
2023/05/20 05:19:34;;;;;;;3.70;1.75;;;21.90;77.00;;;;;;5065598;28;20056;-61
2023/05/20 05:22:00;;;;;;;2.92;1.30;;;22.30;77.10;;;;;;5053326;28;20102;-60
2023/05/20 05:24:26;;;;;;;3.30;1.50;;;22.40;77.00;;;;;;5034651;28;20116;-60
2023/05/20 05:26:53;;;;;;;2.78;1.48;;;22.40;76.80;;;;;;5034204;28;20468;-64
2023/05/20 05:29:19;;;;;;;4.07;1.35;;;22.40;76.60;;;;;;5066140;28;20048;-63
2023/05/20 05:31:45;;;;;;;3.95;1.40;;;22.70;76.50;;;;;;5071182;28;20067;-60
2023/05/20 05:34:10;;;;;;;3.97;1.67;;;22.80;76.40;;;;;;5072027;28;20123;-61
2023/05/20 05:36:38;;;;;;;4.22;1.38;;;22.60;76.00;;;;;;5072357;28;20044;-60
2023/05/20 05:39:04;;;;;;;5.32;1.50;;;22.80;76.00;;;;;;5065717;28;20131;-60
2023/05/20 05:41:30;;;;;;;3.72;1.60;;;22.80;75.90;;;;;;5067793;28;20079;-60
2023/05/20 05:43:56;;;;;;;2.92;1.30;;;23.00;75.80;;;;;;5071648;28;20040;-62
2023/05/20 05:46:22;;;;;;;3.97;1.20;;;23.20;75.70;;;;;;5071371;28;20127;-66
2023/05/20 05:48:49;;;;;;;2.53;1.17;;;23.10;73.80;;;;;;5069480;28;20123;-62
2023/05/20 05:51:15;;;;;;;2.30;1.23;;;23.30;75.20;;;;;;5071069;28;20490;-61
2023/05/20 05:53:41;;;;;;;2.92;1.33;;;23.40;75.50;;;;;;5057080;28;20085;-61
2023/05/20 05:56:07;;;;;;;2.75;1.42;;;23.30;75.20;;;;;;5052069;28;20092;-65
2023/05/20 05:58:33;;;;;;;2.58;1.30;;;23.30;75.10;;;;;;5061010;28;20045;-65
2023/05/20 06:00:59;;;;;;;4.22;1.30;;;23.30;74.90;;;;;;5071628;28;20045;-66
2023/05/20 06:03:25;;;;;;;2.20;1.08;;;23.60;75.00;;;;;;5071476;28;20125;-65
2023/05/20 06:05:51;;;;;;;3.45;1.40;;;23.50;74.80;;;;;;5071678;28;20044;-65
2023/05/20 06:08:17;;;;;;;3.38;1.50;;;23.50;71.80;;;;;;5069952;28;20385;-61
2023/05/20 06:10:52;;;;;;;4.15;1.50;;;23.60;74.60;;;;;;5055200;28;20049;-62
2023/05/20 06:13:18;;;;;;;3.85;1.38;;;23.50;74.40;;;;;;5073267;28;20044;-61
2023/05/20 06:15:45;;;;;;;2.95;1.30;;;23.70;74.40;;;;;;5062040;28;20051;-61
2023/05/20 06:18:11;;;;;;;3.53;1.35;;;23.70;73.10;;;;;;5055479;28;20060;-61
2023/05/20 06:20:37;;;;;;;4.97;1.40;;;23.70;74.00;;;;;;5071344;28;20040;-60
2023/05/20 06:23:03;;;;;;;3.35;1.55;;;23.80;70.20;;;;;;5075858;28;20045;-65
2023/05/20 06:25:29;;;;;;;2.95;1.38;;;23.80;74.10;;;;;;5075952;28;20538;-61
2023/05/20 06:27:55;;;;;;;2.17;1.10;;;23.90;74.00;;;;;;5075045;28;20474;-61
2023/05/20 06:30:20;;;;;;;3.90;1.55;;;23.80;73.80;;;;;;5075131;28;20128;-64
2023/05/20 06:32:46;;;;;;;2.47;1.20;;;24.10;73.90;;;;;;5074971;28;20457;-64
2023/05/20 06:35:12;;;;;;;3.88;1.30;;;23.90;73.60;;;;;;5054953;28;20040;-61
2023/05/20 06:37:39;;;;;;;2.75;1.33;;;;;;;;;;5053326;28;20457;-64
2023/05/20 06:40:05;;;;;;;2.55;1.40;;;24.40;70.00;;;;;;5061407;28;20511;-65
2023/05/20 06:42:31;;;;;;;2.88;1.42;;;24.00;73.30;;;;;;5064430;28;20037;-65
2023/05/20 06:44:57;;;;;;;3.55;1.30;;;24.20;73.20;;;;;;5053145;28;20075;-63
2023/05/20 06:47:23;;;;;;;2.45;1.30;;;24.20;73.40;;;;;;5066307;28;20048;-62
2023/05/20 06:49:48;;;;;;;2.72;1.17;;;24.20;73.00;;;;;;5072276;28;20044;-63
2023/05/20 06:52:14;;;;;;;2.70;1.30;;;24.20;72.80;;;;;;5069232;28;20119;-61
2023/05/20 06:54:40;;;;;;;3.72;1.30;;;24.30;73.00;;;;;;5054219;28;20088;-63
2023/05/20 06:57:07;;;;;;;6.00;1.50;;;24.10;72.80;;;;;;5054527;28;20045;-67
2023/05/20 06:59:34;;;;;;;4.45;1.52;;;24.30;72.90;;;;;;5065526;28;20048;-67
2023/05/20 07:02:00;;;;;;;2.55;1.30;;;24.00;72.70;;;;;;5071946;28;20044;-67
2023/05/20 07:04:26;;;;;;;2.55;1.20;;;24.20;72.80;;;;;;5073161;28;20105;-65
2023/05/20 07:06:52;;;;;;;6.40;1.52;;;24.60;72.90;;;;;;5073236;28;20129;-73
2023/05/20 07:09:17;;;;;;;4.28;1.30;;;24.40;72.70;;;;;;5074159;28;20525;-64
2023/05/20 07:11:43;;;;;;;4.28;1.45;;;24.50;72.70;;;;;;5073550;28;20174;-66
2023/05/20 07:14:10;;;;;;;2.42;1.33;;;24.50;73.00;;;;;;5073345;28;20044;-70
2023/05/20 07:16:36;;;;;;;3.38;1.50;;;24.50;72.70;;;;;;5072196;28;20048;-62
2023/05/20 07:19:02;;;;;;;5.15;1.85;;;24.50;72.60;;;;;;5073565;28;20382;-71
2023/05/20 07:21:28;;;;;;;4.20;1.40;;;24.60;70.00;;;;;;5073134;28;20133;-68
2023/05/20 07:23:54;;;;;;;4.30;1.75;;;24.60;69.50;;;;;;5072038;28;20142;-64
2023/05/20 07:26:20;;;;;;;5.80;1.83;;;24.50;72.50;;;;;;5073653;28;20075;-71
2023/05/20 07:28:46;;;;;;;5.00;1.48;;;24.50;69.80;;;;;;5073320;28;20047;-72
2023/05/20 07:31:12;;;;;;;2.60;1.27;;;24.70;72.50;;;;;;5073423;28;20048;-72
2023/05/20 07:33:38;;;;;;;3.83;1.60;;;24.60;72.20;;;;;;5049642;28;20453;-70
2023/05/20 07:36:04;;;;;;;6.13;1.65;;;24.40;72.20;;;;;;5053674;28;20057;-69
2023/05/20 07:38:31;;;;;;;5.53;1.60;;;24.50;69.10;;;;;;5071688;28;20492;-68
2023/05/20 07:40:57;;;;;;;4.30;1.50;;;24.60;72.20;;;;;;5073409;28;20047;-67
2023/05/20 07:43:23;;;;;;;4.57;1.40;;;24.70;72.10;;;;;;5072665;28;20405;-67
2023/05/20 07:45:49;;;;;;;2.85;1.40;;;24.50;72.30;;;;;;5070201;28;20072;-63
2023/05/20 07:48:15;;;;;;;4.57;1.60;;;24.90;69.20;;;;;;5059138;28;20033;-62
2023/05/20 07:50:41;;;;;;;5.03;1.67;;;24.90;69.10;;;;;;5053392;28;20461;-63
2023/05/20 07:53:07;;;;;;;3.63;1.40;;;24.80;72.00;;;;;;5053351;28;20071;-70
2023/05/20 07:55:33;;;;;;;4.13;1.40;;;24.90;72.10;;;;;;5068586;28;20040;-67
2023/05/20 07:57:59;;;;;;;3.65;1.67;;;24.80;72.00;;;;;;5072815;28;20071;-69
2023/05/20 08:00:25;;;;;;;3.15;1.55;;;24.80;72.00;;;;;;5072753;28;20536;-65
2023/05/20 08:02:51;;;;;;;3.90;1.63;;;24.80;71.90;;;;;;5073195;28;20079;-70
2023/05/20 08:05:17;;;;;;;3.75;1.65;;;24.90;69.20;;;;;;5054150;28;20051;-65
2023/05/20 08:07:43;;;;;;;4.40;1.50;;;24.70;72.00;;;;;;5071944;28;20041;-65
2023/05/20 08:10:09;;;;;;;4.22;1.35;;;24.80;69.00;;;;;;5072948;28;20095;-66
2023/05/20 08:12:35;;;;;;;5.75;1.77;;;24.90;69.00;;;;;;5071650;28;20135;-69
2023/05/20 08:15:00;;;;;;;4.25;1.92;;;24.80;72.40;;;;;;5070290;28;20147;-72
2023/05/20 08:17:26;;;;;;;5.13;2.08;;;24.90;69.40;;;;;;5072723;28;20078;-72
2023/05/20 08:19:52;;;;;;;7.50;2.17;;;24.80;69.60;;;;;;5072689;28;20111;-72
2023/05/20 08:22:18;;;;;;;5.75;2.15;;;24.60;73.10;;;;;;5072728;28;20036;-73
2023/05/20 08:24:43;;;;;;;6.28;2.00;;;24.70;70.10;;;;;;5070907;28;20538;-69
2023/05/20 08:27:09;;;;;;;7.03;2.05;;;24.70;73.50;;;;;;5072854;28;20139;-68
2023/05/20 08:29:35;;;;;;;5.82;1.92;;;24.50;70.10;;;;;;5071147;28;20406;-67
2023/05/20 08:32:01;;;;;;;5.03;2.15;;;24.50;70.30;;;;;;5054588;28;20596;-70
2023/05/20 08:34:27;;;;;;;4.72;1.88;;;24.60;74.10;;;;;;5066019;28;20040;-61
2023/05/20 08:36:53;;;;;;;6.45;2.03;;;24.60;70.30;;;;;;5061637;28;20123;-68
2023/05/20 08:39:19;;;;;;;7.55;2.00;;;24.60;70.50;;;;;;5072003;28;20052;-64
2023/05/20 08:41:46;;;;;;;5.40;1.85;;;24.40;71.00;;;;;;5072500;28;20049;-68
2023/05/20 08:44:11;;;;;;;4.93;2.08;;;24.50;74.10;;;;;;5070755;28;20051;-74
2023/05/20 08:46:37;;;;;;;4.13;1.77;;;24.40;74.10;;;;;;5071875;28;20478;-65
2023/05/20 08:49:03;;;;;;;5.95;2.17;;;24.30;74.30;;;;;;5054025;28;20438;-67
2023/05/20 08:51:29;;;;;;;4.72;2.00;;;24.20;74.30;;;;;;5054454;28;20040;-69
2023/05/20 08:53:55;;;;;;;14.75;2.10;;;24.30;71.10;;;;;;5053702;28;20086;-70
2023/05/20 08:56:20;;;;;;;4.47;1.80;;;24.30;74.30;;;;;;5071088;28;20044;-67
2023/05/20 08:58:46;;;;;;;7.63;1.90;;;24.50;74.50;;;;;;5050447;28;20043;-66
2023/05/20 09:01:12;;;;;;;6.10;2.10;;;24.40;74.60;;;;;;5063968;28;20045;-70
2023/05/20 09:03:38;;;;;;;5.97;2.17;;;24.40;74.50;;;;;;5054986;28;20040;-63
2023/05/20 09:06:07;;;;;;;5.25;2.05;;;24.60;74.50;;;;;;5052313;28;20109;-66
2023/05/20 09:08:34;;;;;;;9.52;2.00;;;24.30;71.70;;;;;;5051805;28;20091;-68
2023/05/20 09:10:59;;;;;;;5.55;1.98;;;24.20;74.30;;;;;;5061889;28;20072;-70
2023/05/20 09:13:26;;;;;;;3.60;1.98;;;24.60;71.30;;;;;;5034305;28;20037;-65
2023/05/20 09:15:52;;;;;;;3.67;1.90;;;24.40;74.50;;;;;;5062359;28;20045;-69
2023/05/20 09:18:18;;;;;;;3.58;1.60;;;24.30;74.50;;;;;;5055334;28;20052;-68
2023/05/20 09:20:46;;;;;;;6.88;2.00;;;24.30;74.60;;;;;;5070514;28;20063;-67
2023/05/20 09:23:11;;;;;;;5.30;1.70;;;24.20;74.80;;;;;;5071751;28;20040;-66
2023/05/20 09:25:37;;;;;;;5.20;1.65;;;24.20;75.50;;;;;;5072084;28;20063;-62
2023/05/20 09:28:06;;;;;;;4.35;1.90;;;24.30;74.70;;;;;;5061496;28;20234;-66
2023/05/20 09:30:32;;;;;;;4.30;1.98;;;24.30;72.10;;;;;;5034364;28;20124;-67
2023/05/20 09:32:59;;;;;;;4.82;2.03;;;22.60;73.50;;;;;;5051802;28;20379;-69
2023/05/20 09:35:26;;;;;;;4.93;2.05;;;24.20;71.80;;;;;;5052272;28;20482;-66
2023/05/20 09:37:55;;;;;;;5.40;1.98;;;24.20;73.80;;;;;;5067957;28;20053;-70
2023/05/20 09:40:28;;;;;;;5.25;1.92;;;24.30;71.40;;;;;;5064053;28;20068;-69
2023/05/20 09:43:01;;;;;;;5.40;1.98;;;24.20;70.00;;;;;;5075191;28;20518;-66
2023/05/20 09:45:26;;;;;;;;;;;24.00;70.10;;;;;;5075978;28;20044;-71
2023/05/20 09:47:53;;;;;;;6.13;2.00;;;23.90;74.30;;;;;;5075666;28;19973;-65
2023/05/20 09:50:23;;;;;;;5.28;2.03;;;24.30;74.60;;;;;;5071148;28;20045;-72
2023/05/20 09:52:50;;;;;;;6.25;2.20;;;24.10;74.60;;;;;;5059659;28;20131;-68
2023/05/20 09:55:17;;;;;;;8.00;2.45;;;24.10;74.20;;;;;;5075426;28;20036;-65
2023/05/20 09:57:43;;;;;;;5.22;1.80;;;24.00;74.30;;;;;;5075519;28;20111;-65
2023/05/20 10:00:12;;;;;;;4.25;1.95;;;24.10;74.30;;;;;;5075229;28;20041;-71
2023/05/20 10:02:43;;;;;;;7.47;2.35;;;23.80;71.20;;;;;;5070154;28;20454;-63
2023/05/20 10:05:16;;;;;;;6.55;2.10;;;24.00;74.70;;;;;;5075070;28;20097;-68
2023/05/20 10:07:50;;;;;;;8.20;2.63;;;23.80;74.30;;;;;;5075152;28;20106;-68
2023/05/20 10:10:20;;;;;;;5.55;2.35;;;24.10;74.80;;;;;;5074023;28;20052;-69
2023/05/20 10:13:11;;;;;;;4.97;2.42;;;24.00;74.40;;;;;;5056292;28;20095;-65
2023/05/20 10:15:45;;;;;;;3.47;1.60;;;23.90;74.20;;;;;;5058840;28;20044;-63
2023/05/20 10:18:33;;;;;;;5.10;2.30;;;23.90;74.40;;;;;;5074490;28;20041;-72
2023/05/20 10:20:58;;;;;;;5.40;2.28;;;23.70;74.00;;;;;;5064102;28;20041;-69
2023/05/20 10:23:28;;;;;;;6.80;2.10;;;23.80;74.00;;;;;;5064642;28;20501;-67
2023/05/20 10:25:54;;;;;;;6.93;2.42;;;23.60;73.80;;;;;;5071791;28;20113;-70
2023/05/20 10:28:28;;;;;;;5.25;1.80;;;23.50;73.80;;;;;;5055119;28;20037;-64
2023/05/20 10:30:54;;;;;;;5.05;2.17;;;23.50;73.70;;;;;;5036942;28;20055;-69
2023/05/20 10:33:20;;;;;;;5.07;2.30;;;23.60;70.90;;;;;;5054626;28;20041;-69
2023/05/20 10:35:52;;;;;;;6.88;2.15;;;23.80;73.40;;;;;;5058380;28;20363;-65
2023/05/20 10:38:19;;;;;;;5.32;2.08;;;23.50;70.40;;;;;;5057068;28;20041;-63
2023/05/20 10:40:45;;;;;;;6.20;1.80;;;23.60;73.10;;;;;;5054474;28;20056;-68
2023/05/20 10:43:27;;;;;;;4.68;2.42;;;23.70;73.10;;;;;;5054330;28;20041;-70
2023/05/20 10:45:57;;;;;;;4.28;2.10;;;23.70;73.30;;;;;;5054548;28;20521;-66
2023/05/20 10:48:24;;;;;;;4.75;2.40;;;23.70;73.10;;;;;;5037952;28;20511;-64
2023/05/20 10:50:52;;;;;;;5.28;2.08;;;23.80;73.40;;;;;;5058367;28;20472;-68
2023/05/20 10:53:21;;;;;;;4.85;2.15;;;23.70;73.20;;;;;;5067240;28;20052;-66
2023/05/20 10:55:50;;;;;;;4.47;2.10;;;23.80;73.20;;;;;;5068186;28;20053;-68
2023/05/20 10:58:16;;;;;;;4.35;1.95;;;23.90;73.70;;;;;;5061704;28;20401;-69
2023/05/20 11:00:42;;;;;;;4.38;1.98;;;23.70;73.20;;;;;;5073527;28;20052;-69
2023/05/20 11:03:08;;;;;;;3.63;1.88;;;23.70;72.80;;;;;;5066408;28;20060;-66
2023/05/20 11:05:54;;;;;;;5.55;1.90;;;23.70;72.90;;;;;;5053720;28;20045;-65
2023/05/20 11:08:20;;;;;;;4.05;2.05;;;23.80;72.80;;;;;;5053572;28;20171;-67
2023/05/20 11:10:46;;;;;;;4.97;1.92;;;23.90;72.70;;;;;;5073402;28;20052;-71
2023/05/20 11:13:13;;;;;;;4.32;1.67;;;24.00;73.00;;;;;;5073897;28;20114;-69
2023/05/20 11:15:39;;;;;;;4.22;2.10;;;23.80;72.80;;;;;;5073891;28;20397;-68
2023/05/20 11:18:05;;;;;;;7.53;2.28;;;23.80;72.40;;;;;;5073122;28;20127;-68
2023/05/20 11:20:33;;;;;;;3.42;1.75;;;23.70;73.20;;;;;;5064505;28;20040;-69
2023/05/20 11:22:59;;;;;;;5.00;1.90;;;24.00;73.50;;;;;;5067901;28;20047;-67
2023/05/20 11:25:27;;;;;;;4.85;1.77;;;;;;;;;;5073659;28;20070;-65
2023/05/20 11:27:53;;;;;;;3.75;1.75;;;23.80;73.30;;;;;;5067663;28;20044;-68
2023/05/20 11:30:19;;;;;;;4.78;2.10;;;23.90;73.30;;;;;;5061839;28;20037;-66
2023/05/20 11:33:01;;;;;;;3.80;1.83;;;23.80;73.20;;;;;;5055867;28;20055;-61
2023/05/20 11:35:29;;;;;;;4.40;1.88;;;24.10;72.10;;;;;;5064040;28;20049;-61
2023/05/20 11:38:03;;;;;;;4.63;2.00;;;23.80;73.70;;;;;;5053214;28;20471;-61
2023/05/20 11:40:30;;;;;;;4.22;1.80;;;23.80;73.50;;;;;;5062294;28;20044;-68
2023/05/20 11:42:58;;;;;;;3.35;1.75;;;23.70;73.60;;;;;;5073606;28;20037;-62
2023/05/20 11:45:26;;;;;;;5.07;2.15;;;23.80;73.90;;;;;;5073306;28;20102;-61
2023/05/20 11:48:01;;;;;;;3.72;1.75;;;23.70;73.00;;;;;;5072019;28;20113;-61
2023/05/20 11:50:27;;;;;;;5.13;2.20;;;23.90;70.90;;;;;;5071661;28;20084;-64
2023/05/20 11:53:01;;;;;;;5.25;1.77;;;23.90;73.70;;;;;;5070543;28;20074;-61
2023/05/20 11:55:27;;;;;;;3.38;1.70;;;24.00;73.60;;;;;;5072686;28;20051;-61
2023/05/20 11:57:53;;;;;;;5.75;2.17;;;23.90;72.20;;;;;;5073204;28;20040;-61
2023/05/20 12:00:20;;;;;;;4.20;2.10;;;23.90;74.00;;;;;;5072942;28;20051;-60
2023/05/20 12:02:46;;;;;;;9.00;2.30;;;23.70;70.70;;;;;;5071456;28;20086;-62
2023/05/20 12:05:13;;;;;;;4.38;2.00;;;23.70;73.50;;;;;;5071695;28;20040;-61
2023/05/20 12:07:40;;;;;;;7.22;2.30;;;23.80;73.10;;;;;;5054919;28;20044;-64
2023/05/20 12:10:07;;;;;;;3.75;1.70;;;23.70;73.30;;;;;;5071828;28;20514;-61
2023/05/20 12:12:35;;;;;;;6.57;1.80;;;23.50;69.80;;;;;;5055614;28;20048;-61
2023/05/20 12:15:01;;;;;;;5.70;2.17;;;23.70;73.00;;;;;;5052444;28;20052;-61
2023/05/20 12:17:27;;;;;;;17.00;2.45;;;23.80;73.20;;;;;;5053867;28;20450;-59
2023/05/20 12:19:53;;;;;;;5.72;2.50;;;23.80;73.30;;;;;;5052642;28;20077;-63
2023/05/20 12:22:19;;;;;;;6.95;2.05;;;;;;;;;;5062425;28;20040;-62
2023/05/20 12:24:45;;;;;;;6.03;1.90;;;23.80;73.80;;;;;;5064939;28;20491;-62
2023/05/20 12:27:11;;;;;;;5.28;1.90;;;23.60;74.00;;;;;;5070828;28;20135;-61
2023/05/20 12:29:37;;;;;;;3.63;2.10;;;23.80;71.10;;;;;;5071746;28;20095;-61
2023/05/20 12:32:03;;;;;;;3.80;2.05;;;23.80;74.50;;;;;;5054836;28;20045;-61
2023/05/20 12:34:29;;;;;;;5.40;2.30;;;23.80;73.60;;;;;;5052301;28;20033;-62
2023/05/20 12:36:55;;;;;;;7.78;2.30;;;23.60;73.40;;;;;;5052379;28;20049;-61
2023/05/20 12:39:21;;;;;;;6.22;2.55;;;23.60;73.20;;;;;;5069217;28;20054;-63
2023/05/20 12:41:48;;;;;;;4.65;2.13;;;;;;;;;;5072341;28;20048;-67
2023/05/20 12:44:13;;;;;;;8.13;2.50;;;23.50;73.00;;;;;;5056639;28;20044;-61
2023/05/20 12:46:40;;;;;;;6.05;2.45;;;;;;;;;;5053035;28;20045;-63
2023/05/20 12:49:05;;;;;;;4.75;2.20;;;23.60;73.10;;;;;;5070135;28;20032;-62
2023/05/20 12:51:32;;;;;;;8.82;2.40;;;;;;;;;;5053574;28;20136;-65